Time;durP1;ratioP1;P1;durP2;ratioP2;P2;SDS_P1;SDS_P2;PMS_P1;PMS_P2;Temp;Humidity;BMP_temperature;BMP_pressure;BME280_temperature;BME280_humidity;BME280_pressure;Samples;Min_cycle;Max_cycle;Signal;HPM_P1;HPM_P2
2023/07/07 00:01:01;;;;;;;5.90;4.63;;;14.10;99.90;;;;;;4990146;28;20066;-50
2023/07/07 00:03:26;;;;;;;5.88;4.45;;;14.10;99.90;;;;;;4989989;28;20046;-51
2023/07/07 00:05:52;;;;;;;5.22;4.20;;;14.10;99.90;;;;;;4989958;28;20069;-52
2023/07/07 00:08:17;;;;;;;5.03;3.83;;;14.00;99.90;;;;;;4989508;28;20105;-51
2023/07/07 00:10:43;;;;;;;4.78;4.15;;;14.00;99.90;;;;;;4989696;28;20030;-51
2023/07/07 00:13:10;;;;;;;6.78;4.07;;;14.10;99.90;;;;;;4989828;28;20117;-52
2023/07/07 00:15:36;;;;;;;4.70;4.22;;;14.10;99.90;;;;;;4989972;28;20480;-52
2023/07/07 00:18:03;;;;;;;5.30;3.70;;;14.10;99.90;;;;;;4989453;28;20038;-52
2023/07/07 00:20:31;;;;;;;8.85;4.43;;;14.10;99.90;;;;;;4989858;28;20037;-50
2023/07/07 00:22:58;;;;;;;8.20;4.47;;;14.20;99.90;;;;;;5041611;28;20012;-50
2023/07/07 00:25:24;;;;;;;4.65;4.15;;;14.20;99.90;;;;;;5092240;28;20020;-51
2023/07/07 00:27:49;;;;;;;5.63;4.38;;;14.10;99.90;;;;;;5091937;28;20424;-51
2023/07/07 00:30:15;;;;;;;4.55;3.97;;;14.10;99.90;;;;;;5092435;28;20023;-50
2023/07/07 00:32:40;;;;;;;7.20;4.85;;;14.10;99.90;;;;;;5028801;28;20022;-49
2023/07/07 00:35:06;;;;;;;8.93;4.82;;;14.00;99.90;;;;;;4989671;28;20042;-50
2023/07/07 00:37:33;;;;;;;5.75;3.75;;;14.00;99.90;;;;;;4989341;28;20109;-51
2023/07/07 00:39:59;;;;;;;8.07;4.30;;;13.90;99.90;;;;;;4989204;28;20018;-51
2023/07/07 00:42:24;;;;;;;5.15;3.92;;;13.90;99.90;;;;;;4989565;28;20096;-53
2023/07/07 00:45:18;;;;;;;5.10;4.22;;;13.90;99.90;;;;;;4989344;28;20030;-53
2023/07/07 00:47:52;;;;;;;7.32;4.40;;;13.80;99.90;;;;;;4985662;28;20039;-51
2023/07/07 00:50:21;;;;;;;6.78;4.13;;;13.80;99.90;;;;;;4972030;28;20027;-53
2023/07/07 00:52:47;;;;;;;8.05;4.32;;;13.70;99.90;;;;;;4971741;28;20030;-52
2023/07/07 00:55:24;;;;;;;7.55;4.53;;;13.60;99.90;;;;;;4989201;28;20417;-51
2023/07/07 00:57:50;;;;;;;7.35;4.57;;;13.70;99.90;;;;;;4988959;28;20028;-52
2023/07/07 01:00:17;;;;;;;7.60;4.70;;;13.70;99.90;;;;;;4989521;28;20083;-53
2023/07/07 01:02:51;;;;;;;9.27;5.07;;;13.70;99.90;;;;;;4989214;28;20500;-54
2023/07/07 01:05:17;;;;;;;7.20;5.15;;;13.70;99.90;;;;;;4988338;28;20034;-53
2023/07/07 01:07:46;;;;;;;9.13;5.28;;;13.70;99.90;;;;;;4971030;28;20541;-52
2023/07/07 01:10:11;;;;;;;6.93;4.82;;;13.60;99.90;;;;;;4988965;28;20023;-52
2023/07/07 01:12:37;;;;;;;4.93;4.00;;;13.60;99.90;;;;;;4989003;28;20023;-52
2023/07/07 01:15:03;;;;;;;8.50;4.82;;;13.60;99.90;;;;;;4989449;28;20083;-52
2023/07/07 01:17:47;;;;;;;7.47;4.85;;;13.50;99.90;;;;;;4989014;28;20074;-51
2023/07/07 01:21:01;;;;;;;6.63;4.88;;;13.50;99.90;;;;;;4989238;28;20080;-51
2023/07/07 01:23:49;;;;;;;8.73;4.97;;;13.50;99.90;;;;;;4989022;28;20054;-54
2023/07/07 01:26:41;;;;;;;6.72;4.57;;;13.30;99.90;;;;;;4989020;28;20014;-52
2023/07/07 01:29:18;;;;;;;5.65;4.50;;;13.30;99.90;;;;;;4988572;28;20481;-51
2023/07/07 01:31:52;;;;;;;5.40;4.53;;;13.20;99.90;;;;;;4988974;28;20395;-52
2023/07/07 01:34:18;;;;;;;7.50;5.07;;;13.20;99.90;;;;;;4988837;28;20487;-51
2023/07/07 01:36:44;;;;;;;6.45;4.78;;;13.30;99.90;;;;;;4988636;28;20034;-50
2023/07/07 01:39:12;;;;;;;4.97;4.38;;;13.20;99.90;;;;;;4988421;28;20034;-51
2023/07/07 01:41:55;;;;;;;10.00;5.18;;;13.20;99.90;;;;;;4988471;28;20387;-51
2023/07/07 01:45:05;;;;;;;7.65;4.88;;;13.20;99.90;;;;;;4988650;28;20390;-48
2023/07/07 01:47:34;;;;;;;7.90;5.30;;;13.20;99.90;;;;;;4988502;28;20022;-52
2023/07/07 01:50:14;;;;;;;6.50;4.53;;;13.20;99.90;;;;;;4988163;28;20543;-51
2023/07/07 01:52:46;;;;;;;7.45;4.78;;;13.10;99.90;;;;;;4988240;28;20108;-52
2023/07/07 01:55:17;;;;;;;7.30;4.60;;;13.10;99.90;;;;;;4988100;28;20030;-50
2023/07/07 01:57:46;;;;;;;9.05;4.93;;;13.00;99.90;;;;;;4988050;28;20027;-52
2023/07/07 02:00:15;;;;;;;5.13;4.28;;;12.90;99.90;;;;;;4988110;28;20376;-51
2023/07/07 02:02:40;;;;;;;6.80;4.43;;;13.00;99.90;;;;;;4988338;28;20100;-52
2023/07/07 02:05:07;;;;;;;6.63;4.70;;;12.90;99.90;;;;;;4970688;28;20117;-51
2023/07/07 02:07:33;;;;;;;7.80;4.70;;;12.90;99.90;;;;;;4988069;28;20071;-51
2023/07/07 02:09:58;;;;;;;5.53;4.63;;;12.80;99.90;;;;;;4988341;28;20218;-52
2023/07/07 02:12:24;;;;;;;7.25;4.75;;;12.80;99.90;;;;;;4988546;28;20026;-52
2023/07/07 02:14:49;;;;;;;6.40;4.97;;;12.70;99.90;;;;;;4980464;28;20110;-51
2023/07/07 02:17:15;;;;;;;6.53;5.22;;;12.80;99.90;;;;;;4970739;28;20037;-51
2023/07/07 02:19:42;;;;;;;6.55;4.75;;;12.80;99.90;;;;;;4978496;28;20113;-51
2023/07/07 02:22:07;;;;;;;6.82;4.90;;;12.80;99.90;;;;;;4977436;28;20043;-51
2023/07/07 02:24:33;;;;;;;5.90;4.57;;;12.80;99.90;;;;;;4977592;28;20049;-50
2023/07/07 02:26:58;;;;;;;11.52;4.85;;;12.70;99.90;;;;;;4995939;28;20496;-53
2023/07/07 02:29:24;;;;;;;5.18;4.60;;;12.70;99.90;;;;;;4987191;28;20038;-52
2023/07/07 02:31:50;;;;;;;7.72;4.75;;;12.70;99.90;;;;;;4979715;28;20071;-51
2023/07/07 02:34:15;;;;;;;8.13;4.75;;;12.70;99.90;;;;;;4978948;28;20030;-50
2023/07/07 02:36:41;;;;;;;8.85;4.57;;;12.60;99.90;;;;;;4979063;28;20396;-50
2023/07/07 02:39:06;;;;;;;5.35;4.45;;;12.70;99.90;;;;;;5000894;28;20387;-50
2023/07/07 02:41:32;;;;;;;5.50;4.75;;;12.70;99.90;;;;;;4968252;28;20045;-52
2023/07/07 02:43:57;;;;;;;11.07;4.22;;;12.70;99.90;;;;;;4968014;28;20037;-52
2023/07/07 02:46:23;;;;;;;11.18;5.10;;;12.70;99.90;;;;;;4968175;28;20043;-51
2023/07/07 02:48:48;;;;;;;5.40;4.63;;;12.60;99.90;;;;;;4967803;28;20585;-51
2023/07/07 02:51:14;;;;;;;6.32;4.45;;;12.60;99.90;;;;;;4968030;28;20092;-51
2023/07/07 02:53:39;;;;;;;6.55;5.10;;;12.60;99.90;;;;;;5034942;28;20038;-52
2023/07/07 02:56:06;;;;;;;6.55;4.07;;;12.60;99.90;;;;;;4978881;28;20038;-51
2023/07/07 02:58:31;;;;;;;7.43;4.47;;;12.60;99.90;;;;;;4987124;28;20030;-52
2023/07/07 03:01:09;;;;;;;7.85;5.28;;;12.60;99.90;;;;;;4987596;28;20482;-52
2023/07/07 03:03:39;;;;;;;4.60;4.10;;;12.60;99.90;;;;;;4987702;28;20065;-51
2023/07/07 03:06:07;;;;;;;5.25;4.15;;;12.60;99.90;;;;;;4987011;28;20037;-53
2023/07/07 03:08:33;;;;;;;8.73;5.03;;;12.60;99.90;;;;;;4986879;28;20152;-53
2023/07/07 03:11:04;;;;;;;5.63;4.57;;;12.50;99.90;;;;;;4987444;28;20113;-53
2023/07/07 03:13:30;;;;;;;6.72;4.57;;;12.50;99.90;;;;;;4984753;28;20031;-53
2023/07/07 03:15:55;;;;;;;5.47;4.32;;;12.40;99.90;;;;;;4980271;28;20053;-53
2023/07/07 03:18:21;;;;;;;6.55;4.40;;;12.40;99.90;;;;;;4970269;28;20336;-53
2023/07/07 03:20:47;;;;;;;6.13;5.07;;;12.40;99.90;;;;;;4972463;28;20026;-52
2023/07/07 03:23:13;;;;;;;6.72;4.82;;;12.40;99.90;;;;;;4987067;28;20027;-52
2023/07/07 03:25:39;;;;;;;8.57;5.25;;;12.30;99.90;;;;;;4969551;28;20572;-53
2023/07/07 03:28:04;;;;;;;9.75;5.00;;;12.30;99.90;;;;;;4987122;28;20108;-53
2023/07/07 03:30:30;;;;;;;8.10;5.35;;;12.20;99.90;;;;;;4990970;28;20026;-52
2023/07/07 03:32:56;;;;;;;7.18;5.05;;;12.10;99.90;;;;;;4990594;28;20459;-53
2023/07/07 03:35:21;;;;;;;6.88;4.18;;;12.10;99.90;;;;;;4990532;28;20541;-52
2023/07/07 03:37:47;;;;;;;5.32;4.82;;;12.10;99.90;;;;;;4989552;28;20072;-51
2023/07/07 03:40:13;;;;;;;5.78;4.10;;;12.10;99.90;;;;;;4972890;28;20141;-52
2023/07/07 03:42:38;;;;;;;5.63;4.97;;;12.10;99.90;;;;;;4990448;28;20308;-52
2023/07/07 03:45:04;;;;;;;7.85;5.55;;;12.10;99.90;;;;;;4990260;28;20031;-51
2023/07/07 03:47:30;;;;;;;6.70;5.82;;;12.10;99.90;;;;;;4948552;28;20484;-53
2023/07/07 03:49:55;;;;;;;6.47;5.32;;;12.10;99.90;;;;;;4979049;28;20027;-53
2023/07/07 03:52:21;;;;;;;5.30;4.68;;;12.10;99.90;;;;;;4977795;28;20026;-53
2023/07/07 03:54:46;;;;;;;7.47;5.05;;;12.20;99.90;;;;;;4961999;28;20073;-54
2023/07/07 03:57:12;;;;;;;9.73;5.55;;;12.20;99.90;;;;;;4979515;28;20024;-52
2023/07/07 03:59:38;;;;;;;6.18;5.30;;;12.30;99.90;;;;;;4980639;28;20023;-50
2023/07/07 04:02:04;;;;;;;8.48;5.70;;;12.30;99.90;;;;;;4979774;28;20057;-52
2023/07/07 04:04:29;;;;;;;6.45;5.50;;;12.30;99.90;;;;;;4979253;28;20133;-50
2023/07/07 04:06:56;;;;;;;13.82;5.85;;;12.30;99.90;;;;;;4980134;28;20045;-52
2023/07/07 04:09:22;;;;;;;6.43;4.78;;;12.40;99.90;;;;;;4980855;28;20022;-52
2023/07/07 04:11:48;;;;;;;7.20;5.25;;;12.40;99.90;;;;;;4978106;28;20014;-52
2023/07/07 04:14:14;;;;;;;7.18;5.28;;;12.50;99.90;;;;;;4962560;28;20030;-52
2023/07/07 04:16:39;;;;;;;6.05;4.70;;;12.50;99.90;;;;;;4973695;28;20038;-52
2023/07/07 04:19:05;;;;;;;6.93;5.05;;;12.50;99.90;;;;;;4987692;28;20375;-52
2023/07/07 04:21:30;;;;;;;5.80;4.72;;;12.60;99.90;;;;;;4988113;28;20379;-53
2023/07/07 04:23:59;;;;;;;5.82;5.03;;;12.60;99.90;;;;;;4970205;28;20018;-53
2023/07/07 04:26:27;;;;;;;7.63;4.82;;;12.60;99.90;;;;;;4971112;28;20380;-52
2023/07/07 04:28:54;;;;;;;9.18;5.13;;;12.60;99.90;;;;;;4970202;28;20043;-53
2023/07/07 04:31:23;;;;;;;10.18;4.78;;;12.70;99.90;;;;;;4970540;28;20038;-52
2023/07/07 04:33:49;;;;;;;5.35;4.65;;;12.80;99.90;;;;;;4987360;28;20026;-53
2023/07/07 04:36:14;;;;;;;5.55;4.28;;;12.90;99.90;;;;;;4973195;28;20220;-52
2023/07/07 04:38:40;;;;;;;5.15;4.22;;;12.90;99.90;;;;;;4976906;28;20039;-52
2023/07/07 04:41:10;;;;;;;8.77;5.30;;;12.90;99.90;;;;;;5091068;28;20035;-52
2023/07/07 04:43:39;;;;;;;7.45;5.35;;;13.00;99.90;;;;;;5092219;28;20028;-51
2023/07/07 04:46:06;;;;;;;7.85;5.28;;;13.10;99.90;;;;;;5092118;28;20396;-52
2023/07/07 04:48:32;;;;;;;5.97;4.03;;;13.10;99.90;;;;;;5091488;28;20024;-52
2023/07/07 04:51:06;;;;;;;13.10;5.20;;;13.20;99.90;;;;;;5092048;28;20103;-51
2023/07/07 04:53:32;;;;;;;5.93;4.40;;;13.20;99.90;;;;;;5092394;28;20024;-52
2023/07/07 04:55:58;;;;;;;8.48;4.40;;;13.30;99.90;;;;;;5092110;28;20028;-52
2023/07/07 04:58:26;;;;;;;7.00;3.95;;;13.40;99.90;;;;;;5047432;28;20396;-51
2023/07/07 05:01:15;;;;;;;9.98;4.38;;;13.40;99.90;;;;;;4989375;28;20030;-52
2023/07/07 05:03:41;;;;;;;12.00;5.03;;;13.50;99.90;;;;;;4989252;28;20511;-51
2023/07/07 05:06:08;;;;;;;6.13;4.53;;;13.60;99.90;;;;;;4989108;28;20219;-51
2023/07/07 05:08:37;;;;;;;8.50;4.70;;;13.60;99.90;;;;;;4988824;28;20177;-52
2023/07/07 05:11:03;;;;;;;8.77;4.40;;;13.80;99.90;;;;;;4989027;28;20434;-52
2023/07/07 05:13:29;;;;;;;6.35;4.38;;;13.80;99.90;;;;;;4989101;28;20041;-51
2023/07/07 05:16:03;;;;;;;4.43;3.75;;;13.80;99.90;;;;;;4988829;28;20026;-50
2023/07/07 05:18:29;;;;;;;3.90;3.60;;;13.90;99.90;;;;;;4988518;28;20026;-51
2023/07/07 05:20:54;;;;;;;8.23;3.92;;;14.00;99.90;;;;;;4988780;28;20036;-52
2023/07/07 05:23:20;;;;;;;5.55;3.85;;;14.00;99.90;;;;;;4988793;28;20030;-52
2023/07/07 05:25:45;;;;;;;4.78;3.75;;;14.10;99.90;;;;;;4987752;28;20026;-51
2023/07/07 05:28:11;;;;;;;5.82;3.83;;;14.20;99.90;;;;;;4987148;28;20030;-50
2023/07/07 05:30:38;;;;;;;5.68;3.45;;;14.30;99.90;;;;;;4987011;28;20501;-50
2023/07/07 05:33:04;;;;;;;5.72;3.45;;;14.40;99.90;;;;;;4975251;28;20034;-51
2023/07/07 05:35:29;;;;;;;6.13;3.40;;;14.40;99.90;;;;;;4979059;28;20049;-52
2023/07/07 05:37:55;;;;;;;5.50;3.38;;;14.50;99.90;;;;;;4986720;28;20026;-52
2023/07/07 05:40:20;;;;;;;4.63;3.13;;;14.60;99.90;;;;;;4987708;28;20026;-52
2023/07/07 05:42:46;;;;;;;5.88;3.05;;;14.70;99.90;;;;;;4989037;28;20030;-49
2023/07/07 05:45:11;;;;;;;4.45;3.58;;;14.80;99.90;;;;;;4988639;28;20030;-52
2023/07/07 05:47:37;;;;;;;5.00;3.30;;;14.90;99.90;;;;;;4988386;28;20050;-50
2023/07/07 05:50:03;;;;;;;3.75;2.90;;;15.00;99.90;;;;;;4988330;28;20026;-52
2023/07/07 05:52:28;;;;;;;6.78;2.97;;;15.10;99.90;;;;;;4988286;28;20031;-52
2023/07/07 05:54:54;;;;;;;4.50;3.08;;;15.20;99.90;;;;;;4988187;28;20033;-51
2023/07/07 05:57:19;;;;;;;3.58;2.53;;;15.40;99.90;;;;;;4988248;28;20031;-52
2023/07/07 05:59:45;;;;;;;3.53;2.53;;;15.50;99.90;;;;;;4988553;28;20398;-52
2023/07/07 06:02:11;;;;;;;6.20;3.65;;;15.60;99.90;;;;;;4988819;28;20076;-52
2023/07/07 06:04:36;;;;;;;5.95;3.17;;;15.70;99.90;;;;;;4988597;28;20027;-52
2023/07/07 06:07:02;;;;;;;5.80;2.90;;;15.80;99.90;;;;;;4971006;28;20472;-51
2023/07/07 06:09:27;;;;;;;13.05;3.72;;;15.90;99.90;;;;;;4970491;28;20117;-52
2023/07/07 06:11:53;;;;;;;3.85;2.50;;;16.00;99.90;;;;;;4988722;28;20065;-52
2023/07/07 06:14:18;;;;;;;3.95;2.95;;;16.10;99.90;;;;;;4988270;28;20041;-51
2023/07/07 06:16:44;;;;;;;5.05;3.22;;;16.30;99.90;;;;;;4987708;28;20049;-51
2023/07/07 06:19:09;;;;;;;4.75;2.70;;;16.40;99.90;;;;;;4970435;28;20030;-51
2023/07/07 06:21:35;;;;;;;4.38;2.50;;;16.50;99.90;;;;;;4988136;28;20403;-49
2023/07/07 06:24:00;;;;;;;3.58;2.80;;;16.50;99.90;;;;;;4987939;28;20119;-50
2023/07/07 06:26:26;;;;;;;3.95;2.60;;;16.60;99.90;;;;;;4987907;28;20105;-51
2023/07/07 06:28:52;;;;;;;2.63;2.40;;;16.80;99.90;;;;;;4987645;28;20034;-51
2023/07/07 06:31:17;;;;;;;3.67;2.25;;;17.00;99.90;;;;;;4987917;28;20066;-51
2023/07/07 06:33:43;;;;;;;4.80;2.42;;;17.10;99.90;;;;;;4970556;28;20026;-50
2023/07/07 06:36:08;;;;;;;8.55;2.80;;;17.20;99.90;;;;;;4988086;28;20057;-50
2023/07/07 06:38:34;;;;;;;3.55;2.60;;;17.60;99.90;;;;;;4987224;28;20125;-49
2023/07/07 06:40:59;;;;;;;2.40;2.20;;;17.70;99.90;;;;;;4988135;28;20035;-51
2023/07/07 06:43:25;;;;;;;5.20;2.55;;;18.00;99.90;;;;;;4987840;28;20026;-51
2023/07/07 06:45:55;;;;;;;4.25;2.53;;;18.20;99.90;;;;;;4987954;28;20026;-51
2023/07/07 06:48:20;;;;;;;3.72;1.83;;;18.30;99.90;;;;;;4987341;28;20049;-50
2023/07/07 06:50:46;;;;;;;3.53;2.22;;;18.50;99.20;;;;;;4987907;28;20027;-50
2023/07/07 06:53:11;;;;;;;3.25;2.08;;;18.60;99.70;;;;;;4987472;28;20030;-50
2023/07/07 06:55:38;;;;;;;3.63;2.40;;;18.80;99.10;;;;;;4987453;28;20098;-51
2023/07/07 06:58:04;;;;;;;5.03;2.28;;;18.80;99.10;;;;;;4969590;28;20023;-49
2023/07/07 07:00:31;;;;;;;3.40;2.20;;;19.10;98.20;;;;;;4987529;28;20027;-51
2023/07/07 07:02:57;;;;;;;5.50;2.30;;;19.20;98.30;;;;;;4987130;28;20023;-51
2023/07/07 07:05:22;;;;;;;2.97;2.00;;;19.20;97.90;;;;;;4987852;28;20088;-52
2023/07/07 07:07:48;;;;;;;4.35;1.98;;;19.30;98.20;;;;;;4986917;28;20026;-52
2023/07/07 07:10:14;;;;;;;2.78;2.30;;;19.60;97.20;;;;;;4987314;28;20107;-51
2023/07/07 07:12:40;;;;;;;3.65;2.20;;;19.70;96.90;;;;;;4987324;28;20023;-51
2023/07/07 07:15:07;;;;;;;3.15;2.38;;;19.80;96.50;;;;;;4987410;28;20022;-51
2023/07/07 07:17:33;;;;;;;4.53;2.05;;;19.90;96.10;;;;;;4987109;28;20046;-51
2023/07/07 07:19:58;;;;;;;5.55;2.28;;;20.10;95.40;;;;;;4986300;28;20257;-51
2023/07/07 07:22:24;;;;;;;3.35;2.17;;;20.30;93.20;;;;;;4969352;28;20033;-50
2023/07/07 07:24:50;;;;;;;5.93;2.22;;;20.50;92.60;;;;;;4978283;28;20030;-49
2023/07/07 07:27:15;;;;;;;3.17;2.20;;;20.70;91.80;;;;;;4975583;28;20268;-51
2023/07/07 07:29:43;;;;;;;3.03;2.00;;;20.80;91.90;;;;;;4975860;28;21337;-50
2023/07/07 07:32:09;;;;;;;5.97;2.00;;;20.90;91.40;;;;;;4977314;28;20031;-50
2023/07/07 07:34:35;;;;;;;6.03;2.22;;;21.00;91.40;;;;;;4983791;28;20069;-51
2023/07/07 07:37:01;;;;;;;3.28;2.22;;;21.20;90.70;;;;;;4986316;28;20399;-50
2023/07/07 07:39:27;;;;;;;2.20;2.00;;;21.30;90.90;;;;;;4985312;28;20026;-51
2023/07/07 07:41:55;;;;;;;3.80;2.65;;;21.40;90.70;;;;;;4986196;28;20026;-52
2023/07/07 07:44:22;;;;;;;5.95;2.13;;;21.50;90.40;;;;;;4986603;28;20057;-52
2023/07/07 07:46:50;;;;;;;2.97;1.90;;;21.70;90.10;;;;;;4977800;28;20015;-51
2023/07/07 07:49:16;;;;;;;4.40;2.20;;;21.80;90.30;;;;;;4975441;28;20042;-50
2023/07/07 07:51:43;;;;;;;4.00;2.30;;;21.90;89.10;;;;;;4959710;28;20034;-51
2023/07/07 07:54:10;;;;;;;2.75;2.13;;;22.00;87.60;;;;;;4985447;28;20033;-50
2023/07/07 07:56:36;;;;;;;8.52;2.30;;;22.10;88.20;;;;;;4986795;28;20224;-51
2023/07/07 07:59:03;;;;;;;3.15;2.45;;;22.30;87.00;;;;;;4968922;28;20403;-51
2023/07/07 08:01:29;;;;;;;2.28;1.98;;;22.40;86.40;;;;;;4986627;28;20426;-51
2023/07/07 08:03:55;;;;;;;3.05;2.10;;;22.50;84.50;;;;;;4986748;28;20030;-51
2023/07/07 08:06:20;;;;;;;3.83;1.95;;;22.60;82.90;;;;;;4986803;28;20434;-52
2023/07/07 08:08:46;;;;;;;4.00;1.95;;;22.70;84.00;;;;;;4986466;28;20033;-51
2023/07/07 08:11:15;;;;;;;3.92;2.00;;;23.00;83.50;;;;;;4986632;28;20399;-50
2023/07/07 08:13:40;;;;;;;7.03;2.28;;;23.20;84.40;;;;;;4969143;28;20041;-51
2023/07/07 08:16:08;;;;;;;4.55;2.20;;;23.70;84.30;;;;;;4988605;28;20395;-51
2023/07/07 08:18:33;;;;;;;4.07;2.00;;;24.10;81.60;;;;;;4989406;28;20095;-51
2023/07/07 08:20:59;;;;;;;2.08;1.80;;;25.00;80.80;;;;;;4967280;28;20042;-52
2023/07/07 08:23:24;;;;;;;2.13;1.80;;;26.40;79.70;;;;;;4999430;28;20031;-52
2023/07/07 08:25:51;;;;;;;3.22;1.67;;;27.80;71.50;;;;;;4989414;28;20034;-52
2023/07/07 08:28:17;;;;;;;2.90;1.77;;;28.50;66.80;;;;;;4988520;28;20591;-52
2023/07/07 08:30:42;;;;;;;6.70;1.80;;;29.60;67.20;;;;;;4989224;28;20026;-53
2023/07/07 08:33:08;;;;;;;1.75;1.40;;;30.00;62.60;;;;;;4989352;28;20030;-53
2023/07/07 08:35:34;;;;;;;3.72;1.98;;;30.80;62.60;;;;;;4989286;28;20030;-53
2023/07/07 08:38:00;;;;;;;3.17;1.45;;;31.50;57.60;;;;;;4978315;28;20101;-53
2023/07/07 08:40:29;;;;;;;2.67;1.45;;;31.90;56.50;;;;;;4986984;28;20038;-53
2023/07/07 08:42:54;;;;;;;2.38;1.55;;;32.90;55.80;;;;;;5007691;28;20030;-53
2023/07/07 08:45:22;;;;;;;1.98;1.30;;;33.30;55.50;;;;;;4989159;28;20414;-53
2023/07/07 08:48:06;;;;;;;2.58;1.20;;;33.60;54.00;;;;;;4988464;28;20022;-53
2023/07/07 08:50:31;;;;;;;2.55;1.50;;;34.50;51.50;;;;;;4986396;28;20026;-53
2023/07/07 08:53:17;;;;;;;2.35;1.83;;;34.80;50.60;;;;;;4989031;28;20027;-53
2023/07/07 08:55:45;;;;;;;2.63;1.60;;;35.00;52.80;;;;;;4987988;28;20069;-53
2023/07/07 08:58:25;;;;;;;1.40;1.30;;;35.50;49.30;;;;;;4988408;28;20034;-53
2023/07/07 09:01:15;;;;;;;2.63;1.70;;;36.10;48.50;;;;;;4989140;28;20065;-54
2023/07/07 09:04:02;;;;;;;3.25;1.65;;;37.00;50.70;;;;;;4988793;28;20034;-54
2023/07/07 09:06:47;;;;;;;2.40;1.40;;;37.10;47.70;;;;;;4989137;28;20026;-54
2023/07/07 09:09:20;;;;;;;3.90;1.50;;;36.80;44.70;;;;;;4989327;28;20022;-54
2023/07/07 09:12:17;;;;;;;3.13;1.60;;;36.00;45.20;;;;;;4971904;28;20022;-54
2023/07/07 09:14:47;;;;;;;2.05;1.67;;;36.40;46.70;;;;;;4971482;28;20026;-54
2023/07/07 09:17:21;;;;;;;3.70;1.50;;;36.90;46.00;;;;;;4989087;28;20041;-54
2023/07/07 09:19:49;;;;;;;2.40;1.42;;;37.80;46.30;;;;;;4988757;28;20562;-54
2023/07/07 09:22:26;;;;;;;2.10;1.40;;;37.80;45.40;;;;;;4988793;28;20031;-54
2023/07/07 09:25:04;;;;;;;3.15;1.25;;;38.30;42.10;;;;;;4970397;28;20031;-54
2023/07/07 09:27:38;;;;;;;2.33;1.55;;;37.40;44.20;;;;;;4986940;28;20494;-54
2023/07/07 09:30:25;;;;;;;2.47;1.50;;;38.30;46.10;;;;;;4986157;28;20060;-54
2023/07/07 09:32:51;;;;;;;2.00;1.40;;;37.20;46.50;;;;;;4987457;28;20538;-54
2023/07/07 09:35:20;;;;;;;3.50;1.52;;;37.10;45.40;;;;;;4988311;28;20117;-54
2023/07/07 09:37:45;;;;;;;1.88;1.40;;;37.30;44.50;;;;;;4987878;28;20023;-54
2023/07/07 09:40:18;;;;;;;1.63;1.40;;;37.70;44.20;;;;;;4978156;28;20033;-54
2023/07/07 09:42:59;;;;;;;2.05;1.48;;;37.70;45.40;;;;;;4986338;28;20376;-54
2023/07/07 09:45:42;;;;;;;3.00;1.42;;;37.60;43.80;;;;;;4987376;28;20395;-54
2023/07/07 09:48:14;;;;;;;4.32;1.63;;;37.60;44.30;;;;;;4985904;28;20022;-54
2023/07/07 09:51:25;;;;;;;6.15;1.60;;;37.40;45.00;;;;;;4977676;28;20032;-54
2023/07/07 09:53:51;;;;;;;1.58;1.30;;;38.20;43.10;;;;;;4989878;28;20091;-54
2023/07/07 09:56:24;;;;;;;2.28;1.45;;;38.70;42.00;;;;;;4978726;28;20027;-54
2023/07/07 09:59:16;;;;;;;1.85;1.48;;;38.80;43.00;;;;;;4988068;28;20023;-54
2023/07/07 10:01:44;;;;;;;5.18;1.65;;;38.60;42.40;;;;;;4988577;28;20076;-54
2023/07/07 10:04:14;;;;;;;1.45;1.15;;;38.90;43.80;;;;;;4981585;28;20566;-54
2023/07/07 10:06:50;;;;;;;4.00;1.50;;;38.20;40.70;;;;;;4978302;28;20488;-54
2023/07/07 10:09:16;;;;;;;3.00;1.38;;;37.60;42.60;;;;;;4986428;28;20050;-54
2023/07/07 10:11:43;;;;;;;1.70;1.40;;;37.70;43.20;;;;;;4988748;28;20491;-54
2023/07/07 10:14:12;;;;;;;3.55;1.38;;;38.40;42.60;;;;;;4988558;28;20038;-54
2023/07/07 10:17:07;;;;;;;3.75;1.33;;;38.80;43.00;;;;;;4988099;28;20033;-54
2023/07/07 10:19:52;;;;;;;3.35;1.48;;;38.50;40.80;;;;;;4988066;28;20106;-54
2023/07/07 10:22:19;;;;;;;7.00;1.77;;;37.40;40.50;;;;;;4970712;28;20583;-54
2023/07/07 10:24:44;;;;;;;2.33;1.65;;;37.70;41.90;;;;;;4987498;28;20038;-54
2023/07/07 10:27:17;;;;;;;6.15;1.95;;;37.70;41.60;;;;;;4986582;28;20030;-54
2023/07/07 10:29:43;;;;;;;2.38;1.50;;;37.30;40.70;;;;;;4975917;28;20025;-54
2023/07/07 10:32:23;;;;;;;2.42;1.35;;;36.70;43.10;;;;;;4968355;28;20035;-54
2023/07/07 10:34:52;;;;;;;2.30;1.38;;;36.90;41.10;;;;;;4968456;28;20053;-54
2023/07/07 10:37:24;;;;;;;2.58;1.50;;;36.40;44.00;;;;;;4967676;28;20027;-54
2023/07/07 10:39:58;;;;;;;3.40;1.40;;;36.70;43.20;;;;;;4967774;28;20041;-54
2023/07/07 10:42:25;;;;;;;2.95;1.45;;;36.80;42.90;;;;;;4968886;28;20088;-54
2023/07/07 10:44:55;;;;;;;2.53;1.60;;;37.90;44.10;;;;;;4970279;28;20027;-54
2023/07/07 10:47:25;;;;;;;3.40;1.38;;;37.80;41.70;;;;;;4987723;28;20034;-54
2023/07/07 10:49:51;;;;;;;4.22;1.60;;;37.90;40.90;;;;;;4987507;28;20567;-54
2023/07/07 10:52:43;;;;;;;1.52;1.35;;;37.90;40.60;;;;;;4987838;28;20034;-54
2023/07/07 10:55:21;;;;;;;1.80;1.33;;;38.30;40.30;;;;;;4987624;28;20030;-54
2023/07/07 10:58:06;;;;;;;2.58;1.55;;;38.40;42.80;;;;;;4978587;28;20033;-54
2023/07/07 11:01:01;;;;;;;3.72;1.30;;;38.30;41.10;;;;;;4996532;28;20567;-54
2023/07/07 11:03:33;;;;;;;2.90;1.35;;;38.40;40.70;;;;;;4967593;28;20087;-54
2023/07/07 11:06:10;;;;;;;3.42;1.50;;;38.10;41.80;;;;;;4987077;28;20479;-54
2023/07/07 11:09:11;;;;;;;2.08;1.48;;;39.40;40.60;;;;;;4986977;28;20511;-54
2023/07/07 11:11:42;;;;;;;2.75;1.60;;;39.30;38.60;;;;;;4985749;28;20027;-54
2023/07/07 11:14:41;;;;;;;3.90;1.42;;;39.30;39.50;;;;;;4985694;28;20035;-54
2023/07/07 11:17:14;;;;;;;1.70;1.33;;;38.90;40.30;;;;;;4985480;28;20022;-54
2023/07/07 11:20:07;;;;;;;1.80;1.63;;;38.30;39.10;;;;;;4985304;28;20130;-53
2023/07/07 11:22:57;;;;;;;2.08;1.52;;;37.70;41.00;;;;;;4985926;28;20416;-54
2023/07/07 11:25:37;;;;;;;2.20;1.50;;;37.60;41.80;;;;;;4987178;28;20027;-54
2023/07/07 11:28:14;;;;;;;2.78;1.40;;;37.10;43.10;;;;;;4986600;28;20034;-54
2023/07/07 11:30:54;;;;;;;1.50;1.40;;;37.90;42.30;;;;;;4987324;28;20395;-54
2023/07/07 11:33:49;;;;;;;4.15;1.63;;;38.20;42.70;;;;;;4987029;28;20022;-54
2023/07/07 11:36:36;;;;;;;1.70;1.30;;;38.50;42.30;;;;;;4986648;28;20033;-54
2023/07/07 11:39:11;;;;;;;2.22;1.55;;;39.10;41.70;;;;;;4986539;28;20061;-54
2023/07/07 11:41:53;;;;;;;2.55;1.63;;;38.50;39.20;;;;;;4987063;28;20026;-54
2023/07/07 11:44:48;;;;;;;3.13;1.45;;;38.30;41.20;;;;;;4987268;28;20106;-54
2023/07/07 11:47:23;;;;;;;2.90;1.50;;;38.90;42.10;;;;;;5004802;28;20045;-54
2023/07/07 11:50:15;;;;;;;2.25;1.50;;;39.20;38.90;;;;;;4988426;28;20494;-54
2023/07/07 11:53:12;;;;;;;1.55;1.40;;;37.90;40.30;;;;;;5008519;28;20531;-54
2023/07/07 11:55:55;;;;;;;1.63;1.43;;;38.10;41.90;;;;;;4987352;28;20048;-54
2023/07/07 11:58:49;;;;;;;2.28;1.40;;;36.90;40.60;;;;;;4971773;28;20026;-54
2023/07/07 12:01:25;;;;;;;2.20;1.48;;;36.20;41.30;;;;;;4995261;28;20048;-53
2023/07/07 12:04:06;;;;;;;3.10;1.60;;;35.80;42.80;;;;;;4980975;28;20088;-54
2023/07/07 12:06:45;;;;;;;1.60;1.50;;;36.00;43.30;;;;;;4989699;28;20023;-54
2023/07/07 12:09:29;;;;;;;2.45;1.55;;;35.90;43.30;;;;;;4980890;28;20014;-53
2023/07/07 12:12:04;;;;;;;1.90;1.52;;;35.50;45.50;;;;;;4987498;28;20019;-53
2023/07/07 12:14:55;;;;;;;3.42;1.90;;;35.00;43.90;;;;;;4989723;28;20046;-53
2023/07/07 12:17:32;;;;;;;2.90;1.65;;;34.60;49.20;;;;;;4972527;28;20022;-53
2023/07/07 12:20:05;;;;;;;5.22;1.73;;;34.30;44.20;;;;;;4987845;28;20078;-53
2023/07/07 12:22:37;;;;;;;2.25;1.42;;;34.50;44.50;;;;;;4990268;28;20061;-52
2023/07/07 12:25:15;;;;;;;2.13;1.67;;;34.20;46.80;;;;;;4989818;28;20480;-53
2023/07/07 12:27:46;;;;;;;1.55;1.40;;;33.50;43.40;;;;;;4989247;28;20030;-53
2023/07/07 12:30:24;;;;;;;2.88;1.92;;;33.10;47.00;;;;;;4989613;28;20109;-53
2023/07/07 12:32:50;;;;;;;2.58;1.63;;;32.90;47.90;;;;;;4956979;28;20038;-52
2023/07/07 12:35:25;;;;;;;3.70;1.45;;;32.60;46.20;;;;;;4989613;28;20470;-52
2023/07/07 12:37:51;;;;;;;5.53;1.77;;;32.30;46.00;;;;;;4989211;28;20471;-53
2023/07/07 12:40:18;;;;;;;2.20;1.40;;;32.30;48.90;;;;;;4989473;28;20399;-52
2023/07/07 12:42:44;;;;;;;5.32;1.83;;;32.10;45.80;;;;;;4989520;28;20491;-53
2023/07/07 12:45:17;;;;;;;5.38;1.70;;;31.70;47.10;;;;;;4989415;28;20064;-52
2023/07/07 12:47:45;;;;;;;3.42;1.90;;;31.30;44.10;;;;;;4988868;28;20430;-52
2023/07/07 12:50:36;;;;;;;5.22;1.50;;;31.40;48.80;;;;;;4989545;28;20034;-52
2023/07/07 12:53:05;;;;;;;3.63;1.33;;;31.80;47.10;;;;;;4989227;28;20090;-52
2023/07/07 12:55:37;;;;;;;2.95;1.40;;;32.00;47.40;;;;;;4989636;28;20030;-52
2023/07/07 12:58:05;;;;;;;2.78;1.58;;;32.00;48.30;;;;;;4989039;28;20109;-53
2023/07/07 13:00:39;;;;;;;4.22;1.80;;;31.40;46.70;;;;;;4988718;28;20035;-53
2023/07/07 13:03:17;;;;;;;11.15;1.75;;;31.00;44.60;;;;;;4989353;28;20019;-52